Time;durP1;ratioP1;P1;durP2;ratioP2;P2;SDS_P1;SDS_P2;PMS_P1;PMS_P2;Temp;Humidity;BMP_temperature;BMP_pressure;BME280_temperature;BME280_humidity;BME280_pressure;Samples;Min_cycle;Max_cycle;Signal;HPM_P1;HPM_P2
2022/05/20 00:00:40;;;;;;;7.23;4.23;;;;;;;19.70;82.92;98613.72;5069706;28;20209;-72
2022/05/20 00:03:07;;;;;;;4.80;3.60;;;;;;;19.81;81.22;98612.66;5060116;28;20205;-72
2022/05/20 00:05:34;;;;;;;6.00;4.03;;;;;;;19.77;82.25;98618.88;5055422;28;20210;-72
2022/05/20 00:08:00;;;;;;;9.20;4.37;;;;;;;19.80;81.24;98615.66;5054846;28;20634;-72
2022/05/20 00:10:27;;;;;;;4.33;3.57;;;;;;;19.77;81.75;98615.09;5053941;28;20217;-73
2022/05/20 00:12:54;;;;;;;6.70;4.03;;;;;;;19.67;83.33;98606.97;5052670;28;20656;-72
2022/05/20 00:15:23;;;;;;;4.30;3.90;;;;;;;19.53;84.05;98600.44;5052799;28;20213;-72
2022/05/20 00:17:49;;;;;;;5.93;4.00;;;;;;;19.45;84.56;98608.22;5053847;28;20225;-72
2022/05/20 00:20:18;;;;;;;6.13;3.90;;;;;;;19.40;85.42;98600.06;5053616;28;20209;-72
2022/05/20 00:22:45;;;;;;;4.20;3.77;;;;;;;19.33;85.60;98604.91;5053509;28;20205;-73
2022/05/20 00:27:57;;;;;;;11.30;4.10;;;;;;;19.20;87.05;98595.38;5053352;28;20215;-72
2022/05/20 00:30:25;;;;;;;4.63;3.80;;;;;;;19.15;87.24;98598.06;5053340;28;20212;-72
2022/05/20 00:32:52;;;;;;;4.97;4.33;;;;;;;19.09;87.46;98596.38;5051664;28;20575;-72
2022/05/20 00:35:19;;;;;;;4.50;4.10;;;;;;;18.99;87.23;98600.88;5053273;28;20652;-72
2022/05/20 00:37:45;;;;;;;5.50;4.30;;;;;;;19.02;87.46;98601.19;5052964;28;20236;-72
2022/05/20 00:40:15;;;;;;;5.77;4.07;;;;;;;18.99;88.05;98600.88;5054170;28;20201;-72
2022/05/20 00:42:42;;;;;;;6.33;4.67;;;;;;;18.94;87.97;98601.66;5053146;28;20201;-72
2022/05/20 00:45:11;;;;;;;4.83;4.27;;;;;;;18.89;89.37;98598.13;5053360;28;20209;-72
2022/05/20 00:47:38;;;;;;;5.73;4.17;;;;;;;18.91;88.83;98596.78;5052041;28;20709;-72
2022/05/20 00:50:12;;;;;;;5.63;4.10;;;;;;;18.84;89.00;98601.59;5049901;28;21544;-72
2022/05/20 00:52:42;;;;;;;4.50;4.10;;;;;;;18.82;89.35;98594.84;5053326;28;20216;-72
2022/05/20 00:55:14;;;;;;;7.57;4.30;;;;;;;18.82;88.83;98581.38;5054416;28;20205;-72
2022/05/20 00:57:56;;;;;;;4.23;3.93;;;;;;;18.80;89.03;98583.50;5051830;28;20233;-72
2022/05/20 01:00:27;;;;;;;5.70;4.00;;;;;;;18.79;88.87;98579.19;5035349;28;20201;-72
2022/05/20 01:03:01;;;;;;;5.10;4.07;;;;;;;18.79;88.13;98587.28;5065210;28;20203;-72
2022/05/20 01:05:30;;;;;;;6.40;4.43;;;;;;;18.74;89.81;98593.41;5053736;28;20208;-72
2022/05/20 01:07:58;;;;;;;7.07;4.20;;;;;;;18.71;89.66;98583.19;5052881;28;20231;-72
2022/05/20 01:10:24;;;;;;;5.03;4.53;;;;;;;18.76;89.03;98580.53;5052584;28;20208;-72
2022/05/20 01:12:52;;;;;;;6.10;4.77;;;;;;;18.82;88.48;98584.06;5052956;28;20216;-72
2022/05/20 01:15:19;;;;;;;5.40;4.60;;;;;;;18.74;89.21;98576.47;5065785;28;20212;-72
2022/05/20 01:17:48;;;;;;;5.30;4.40;;;;;;;18.71;89.34;98571.59;5062694;28;20217;-72
2022/05/20 01:20:26;;;;;;;5.20;4.70;;;;;;;18.67;89.51;98578.56;5019630;28;20695;-72
2022/05/20 01:23:08;;;;;;;7.03;4.30;;;;;;;18.59;90.45;98577.16;5035918;28;20209;-72
2022/05/20 01:25:35;;;;;;;6.50;4.70;;;;;;;18.51;90.57;98580.31;5033217;28;20209;-72
2022/05/20 01:28:02;;;;;;;6.27;4.47;;;;;;;18.44;91.22;98585.13;5041273;28;20231;-72
2022/05/20 01:30:31;;;;;;;4.77;4.30;;;;;;;18.39;92.05;98577.00;5052330;28;20207;-72
2022/05/20 01:33:01;;;;;;;7.40;5.20;;;;;;;18.38;91.43;98588.84;5053068;28;20687;-72
2022/05/20 01:35:38;;;;;;;6.83;5.03;;;;;;;18.40;91.25;98580.47;5052522;28;20201;-72
2022/05/20 01:38:06;;;;;;;5.77;4.70;;;;;;;18.36;91.67;98579.38;5053371;28;20228;-72
2022/05/20 01:40:57;;;;;;;5.90;5.30;;;;;;;18.35;93.17;98575.88;5052204;28;20201;-72
2022/05/20 01:43:57;;;;;;;6.17;5.43;;;;;;;18.28;93.16;98579.81;5032917;28;20205;-72
2022/05/20 01:46:43;;;;;;;5.67;5.17;;;;;;;18.26;93.23;98579.25;5051244;28;20224;-72
2022/05/20 01:49:33;;;;;;;7.73;5.57;;;;;;;18.30;92.75;98573.13;5052265;28;20588;-72
2022/05/20 01:52:07;;;;;;;7.93;5.57;;;;;;;18.30;93.26;98570.41;5048003;28;20212;-72
2022/05/20 01:54:47;;;;;;;8.07;5.60;;;;;;;18.17;94.07;98570.84;5050921;28;20208;-72
2022/05/20 01:57:28;;;;;;;7.10;5.67;;;;;;;18.16;94.43;98561.16;5049638;28;20652;-72
2022/05/20 02:00:03;;;;;;;7.73;5.97;;;;;;;18.19;94.31;98562.50;5051952;28;20193;-72
2022/05/20 02:02:36;;;;;;;6.57;5.90;;;;;;;18.38;92.24;98558.41;5052145;28;20283;-72
2022/05/20 02:05:09;;;;;;;9.07;5.80;;;;;;;18.35;93.31;98551.66;5051357;28;20560;-72
2022/05/20 02:07:41;;;;;;;7.03;5.20;;;;;;;18.25;93.27;98551.53;5053118;28;20244;-72
2022/05/20 02:10:27;;;;;;;5.90;5.40;;;;;;;18.21;93.93;98557.66;5051909;28;20219;-72
2022/05/20 02:12:58;;;;;;;6.67;5.73;;;;;;;18.17;94.04;98564.63;5052627;28;20212;-72
2022/05/20 02:15:30;;;;;;;6.20;5.60;;;;;;;18.13;94.62;98560.81;5050799;28;20680;-72
2022/05/20 02:18:03;;;;;;;7.03;5.70;;;;;;;18.14;94.94;98563.25;5064181;28;20216;-72
2022/05/20 02:20:37;;;;;;;8.10;5.23;;;;;;;18.11;95.25;98558.41;5068678;28;20198;-72
2022/05/20 02:23:08;;;;;;;6.17;5.60;;;;;;;18.13;94.60;98561.63;5056524;28;20199;-72
2022/05/20 02:25:39;;;;;;;7.27;5.70;;;;;;;18.07;95.72;98565.34;5055717;28;20266;-72
2022/05/20 02:28:20;;;;;;;6.23;5.33;;;;;;;18.05;95.58;98567.47;5056503;28;20233;-72
2022/05/20 02:30:48;;;;;;;9.73;5.23;;;;;;;18.10;96.25;98574.81;5055523;28;20281;-72
2022/05/20 02:33:22;;;;;;;6.87;5.27;;;;;;;18.08;95.88;98574.22;5065692;28;20196;-72
2022/05/20 02:35:49;;;;;;;6.83;5.60;;;;;;;18.06;95.70;98577.16;5071879;28;20205;-72
2022/05/20 02:38:22;;;;;;;7.20;5.40;;;;;;;18.05;96.11;98578.25;5056534;28;20228;-72
2022/05/20 02:40:52;;;;;;;8.93;5.20;;;;;;;18.06;96.01;98571.00;5055443;28;20245;-72
2022/05/20 02:43:20;;;;;;;9.40;5.87;;;;;;;18.01;96.25;98568.25;5056434;28;20201;-72
2022/05/20 02:45:49;;;;;;;7.07;5.37;;;;;;;18.00;96.75;98567.44;5054178;28;20670;-72
2022/05/20 02:48:18;;;;;;;9.53;5.80;;;;;;;18.00;96.57;98567.44;5055628;28;20233;-72
2022/05/20 02:50:45;;;;;;;6.50;5.83;;;;;;;18.03;96.76;98563.41;5052458;28;20201;-72
2022/05/20 02:53:13;;;;;;;6.30;5.50;;;;;;;18.07;96.23;98562.66;5055225;28;20201;-72
2022/05/20 02:55:39;;;;;;;8.13;6.00;;;;;;;18.13;94.84;98567.03;5055075;28;20216;-72
2022/05/20 02:58:05;;;;;;;6.77;5.77;;;;;;;18.18;93.94;98561.69;5056118;28;20221;-72
2022/05/20 03:06:00;;;;;;;7.17;6.07;;;;;;;18.11;95.35;98558.41;5054117;28;20274;-72
2022/05/20 03:08:26;;;;;;;12.43;6.13;;;;;;;18.00;96.50;98563.94;5055465;28;20688;-72
2022/05/20 03:10:53;;;;;;;8.57;5.70;;;;;;;17.95;97.30;98562.00;5054767;28;20217;-71
2022/05/20 03:13:19;;;;;;;7.67;5.63;;;;;;;17.96;96.55;98560.13;5059934;28;20201;-72
2022/05/20 03:15:46;;;;;;;6.27;5.43;;;;;;;17.98;96.53;98563.38;5054400;28;20209;-72
2022/05/20 03:18:14;;;;;;;6.47;5.87;;;;;;;17.99;96.10;98562.28;5055344;28;20221;-72
2022/05/20 03:20:41;;;;;;;6.37;4.97;;;;;;;18.05;96.41;98564.78;5053376;28;20213;-72
2022/05/20 03:23:09;;;;;;;7.17;5.67;;;;;;;18.03;95.99;98556.16;5054392;28;20217;-72
2022/05/20 03:25:37;;;;;;;7.47;5.17;;;;;;;18.02;95.14;98562.63;5054496;28;20277;-72
2022/05/20 03:28:04;;;;;;;6.37;5.77;;;;;;;18.03;95.32;98560.72;5055466;28;20233;-72
2022/05/20 03:30:30;;;;;;;6.57;5.30;;;;;;;18.12;94.68;98561.88;5053187;28;20572;-72
2022/05/20 03:32:56;;;;;;;8.93;5.77;;;;;;;18.08;95.61;98566.97;5053818;28;20213;-72
2022/05/20 03:35:23;;;;;;;7.00;5.40;;;;;;;18.09;95.66;98573.19;5054071;28;20201;-72
2022/05/20 03:37:49;;;;;;;7.53;5.30;;;;;;;18.10;95.39;98575.59;5055339;28;20236;-72
2022/05/20 03:40:15;;;;;;;7.23;5.50;;;;;;;18.13;95.61;98567.03;5053282;28;20209;-72
2022/05/20 03:42:43;;;;;;;7.50;5.47;;;;;;;18.15;95.16;98564.09;5054782;28;20511;-72
2022/05/20 03:45:10;;;;;;;6.13;5.37;;;;;;;18.17;94.54;98570.84;5054118;28;20202;-72
2022/05/20 03:47:36;;;;;;;7.97;5.80;;;;;;;18.19;93.91;98567.91;5051268;28;20229;-72
2022/05/20 03:50:04;;;;;;;6.90;5.23;;;;;;;18.15;94.46;98575.66;5053128;28;20197;-72
2022/05/20 03:52:30;;;;;;;7.43;5.67;;;;;;;18.12;94.44;98564.59;5061800;28;20230;-72
2022/05/20 03:54:57;;;;;;;6.97;5.50;;;;;;;18.15;94.25;98569.47;5063314;28;20205;-72
2022/05/20 03:57:23;;;;;;;7.07;5.60;;;;;;;18.17;93.97;98567.31;5060210;28;20221;-72
2022/05/20 03:59:50;;;;;;;7.07;6.07;;;;;;;18.17;94.23;98565.44;5068507;28;20329;-72
2022/05/20 04:02:15;;;;;;;11.10;6.03;;;;;;;18.20;94.47;98564.94;5068134;28;20223;-72
2022/05/20 04:04:46;;;;;;;6.37;5.77;;;;;;;18.25;93.62;98567.69;5072838;28;20205;-72
2022/05/20 04:07:19;;;;;;;8.60;5.93;;;;;;;18.23;93.59;98571.72;5053538;28;20263;-72
2022/05/20 04:09:48;;;;;;;6.70;5.90;;;;;;;18.26;93.46;98568.47;5055212;28;20190;-72
2022/05/20 04:12:24;;;;;;;10.00;6.23;;;;;;;18.24;93.67;98568.72;5053651;28;20543;-72
2022/05/20 04:14:51;;;;;;;7.07;5.60;;;;;;;18.23;94.36;98560.94;5054005;28;20211;-72
2022/05/20 04:17:17;;;;;;;7.90;6.23;;;;;;;18.21;94.11;98563.88;5051413;28;20201;-72
2022/05/20 04:19:44;;;;;;;8.80;5.27;;;;;;;18.30;93.05;98556.97;5054498;28;20209;-72
2022/05/20 04:22:13;;;;;;;6.97;5.50;;;;;;;18.27;92.81;98567.44;5052922;28;20209;-72
2022/05/20 04:24:40;;;;;;;8.50;5.70;;;;;;;18.29;92.90;98573.38;5053993;28;20675;-72
2022/05/20 04:27:06;;;;;;;9.60;5.87;;;;;;;18.30;93.28;98565.03;5051669;28;20229;-72
2022/05/20 04:29:33;;;;;;;11.70;6.23;;;;;;;18.30;92.58;98556.13;5054266;28;20282;-72
2022/05/20 04:32:00;;;;;;;8.40;5.77;;;;;;;18.29;93.83;98547.28;5051271;28;20201;-72
2022/05/20 04:34:26;;;;;;;6.90;5.67;;;;;;;18.29;93.35;98546.44;5054109;28;20205;-72
2022/05/20 04:36:53;;;;;;;6.23;5.60;;;;;;;18.31;93.88;98553.19;5051926;28;20201;-72
2022/05/20 04:39:20;;;;;;;7.37;5.60;;;;;;;18.29;94.90;98558.03;5053811;28;20225;-72
2022/05/20 04:47:24;;;;;;;8.90;5.73;;;;;;;18.44;92.06;98551.97;5050426;28;20583;-72
2022/05/20 04:49:51;;;;;;;6.10;5.50;;;;;;;18.50;91.04;98556.34;5053308;28;20185;-72
2022/05/20 04:52:18;;;;;;;7.93;5.77;;;;;;;18.50;92.40;98557.16;5052366;28;20202;-72
2022/05/20 04:54:49;;;;;;;7.87;5.73;;;;;;;18.57;92.31;98559.63;5053655;28;20216;-72
2022/05/20 04:57:31;;;;;;;8.20;5.83;;;;;;;18.77;90.14;98557.09;5051344;28;20193;-72
2022/05/20 05:00:07;;;;;;;8.67;5.67;;;;;;;19.10;88.07;98552.16;5053261;28;20566;-72
2022/05/20 05:02:34;;;;;;;6.20;5.60;;;;;;;19.52;84.59;98560.22;5050281;28;20201;-72
2022/05/20 05:05:01;;;;;;;6.37;5.33;;;;;;;19.85;81.43;98554.41;5052490;28;20208;-73
2022/05/20 05:07:28;;;;;;;7.10;5.43;;;;;;;20.10;80.29;98559.06;5050895;28;20233;-72
2022/05/20 05:09:54;;;;;;;8.57;5.37;;;;;;;20.43;78.21;98561.28;5052794;28;20221;-72
2022/05/20 05:12:22;;;;;;;6.27;5.27;;;;;;;20.18;79.85;98555.84;5051370;28;20205;-72
2022/05/20 05:14:51;;;;;;;6.50;5.60;;;;;;;20.06;80.83;98563.34;5053099;28;20205;-72
2022/05/20 05:18:09;;;;;;;8.37;6.50;;;;;;;19.81;82.10;98561.41;5050223;28;20657;-72
2022/05/20 05:20:09;;;;;;;9.33;6.67;;;;;;;19.89;82.82;98571.69;5055263;28;20208;-72
2022/05/20 05:22:35;;;;;;;9.03;6.00;;;;;;;19.83;82.86;98567.34;5051938;28;20648;-72
2022/05/20 05:25:02;;;;;;;8.77;6.60;;;;;;;19.89;82.85;98571.69;5053092;28;20205;-72
2022/05/20 05:27:28;;;;;;;7.67;6.13;;;;;;;20.02;81.91;98568.47;5050393;28;20230;-72
2022/05/20 05:29:54;;;;;;;9.17;6.33;;;;;;;19.86;82.56;98576.81;5052784;28;20231;-72
2022/05/20 05:32:21;;;;;;;9.30;6.90;;;;;;;19.94;82.51;98574.41;5050802;28;20201;-72
2022/05/20 05:34:47;;;;;;;8.27;6.20;;;;;;;20.03;82.50;98572.00;5052844;28;20209;-72
2022/05/20 05:37:14;;;;;;;10.33;6.50;;;;;;;20.11;81.85;98564.22;5050617;28;20266;-73
2022/05/20 05:39:40;;;;;;;8.37;5.60;;;;;;;20.13;78.69;98569.34;5051720;28;20212;-72
2022/05/20 05:42:07;;;;;;;10.73;6.10;;;;;;;20.21;80.64;98569.63;5051867;28;20216;-72
2022/05/20 05:44:33;;;;;;;7.73;5.83;;;;;;;20.33;80.32;98569.38;5051418;28;20216;-72
2022/05/20 05:46:59;;;;;;;8.00;5.40;;;;;;;20.51;77.63;98568.84;5051481;28;20579;-72
2022/05/20 05:49:26;;;;;;;7.30;5.30;;;;;;;20.56;76.75;98561.56;5051700;28;20216;-72
2022/05/20 05:51:54;;;;;;;6.30;4.87;;;;;;;20.77;75.82;98565.06;5051997;28;20304;-72
2022/05/20 05:54:20;;;;;;;7.17;5.03;;;;;;;20.61;76.18;98568.88;5050783;28;20216;-72
2022/05/20 05:56:46;;;;;;;6.23;4.77;;;;;;;20.69;75.31;98568.28;5054124;28;20209;-72
2022/05/20 05:59:13;;;;;;;8.67;5.23;;;;;;;20.87;75.04;98563.16;5055362;28;20232;-72
2022/05/20 06:01:39;;;;;;;7.10;4.43;;;;;;;20.93;74.64;98555.88;5055803;28;20250;-72
2022/05/20 06:04:05;;;;;;;7.67;5.50;;;;;;;20.92;74.37;98568.59;5055646;28;20208;-72
2022/05/20 06:06:32;;;;;;;6.50;5.40;;;;;;;20.79;74.92;98562.91;5055521;28;20209;-72
2022/05/20 06:08:58;;;;;;;7.63;5.43;;;;;;;20.95;75.84;98559.94;5054941;28;20591;-72
2022/05/20 06:11:25;;;;;;;8.67;5.33;;;;;;;20.86;75.36;98563.44;5056075;28;20219;-72
2022/05/20 06:13:51;;;;;;;9.80;5.27;;;;;;;20.96;74.84;98563.44;5053668;28;20208;-72
2022/05/20 06:16:22;;;;;;;11.03;6.47;;;;;;;21.04;74.69;98563.72;5055330;28;20223;-72
2022/05/20 06:18:51;;;;;;;6.97;5.77;;;;;;;21.10;74.86;98565.31;5055178;28;20213;-72
2022/05/20 06:21:18;;;;;;;11.17;6.20;;;;;;;21.10;75.48;98562.59;5056364;28;20282;-72
2022/05/20 06:23:44;;;;;;;11.23;6.40;;;;;;;21.29;74.92;98552.81;5053866;28;20644;-72
2022/05/20 06:26:11;;;;;;;12.47;6.80;;;;;;;21.19;75.28;98557.44;5054965;28;20653;-70
2022/05/20 06:28:37;;;;;;;13.97;6.07;;;;;;;21.31;75.29;98553.38;5054548;28;20247;-72
2022/05/20 06:31:03;;;;;;;9.67;6.00;;;;;;;21.49;75.30;98557.34;5056391;28;20216;-72
2022/05/20 06:33:30;;;;;;;6.43;5.07;;;;;;;21.66;72.61;98550.50;5055947;28;20205;-72
2022/05/20 06:41:24;;;;;;;8.40;4.27;;;;;;;22.10;69.39;98550.53;5055182;28;20235;-71
2022/05/20 06:43:50;;;;;;;8.30;4.40;;;;;;;22.29;68.42;98548.81;5054971;28;20786;-71
2022/05/20 06:46:17;;;;;;;4.27;3.73;;;;;;;22.40;66.37;98553.06;5053752;28;20205;-71
2022/05/20 06:48:53;;;;;;;8.27;4.23;;;;;;;22.54;64.31;98554.06;5053855;28;20229;-71
2022/05/20 06:51:24;;;;;;;6.30;4.17;;;;;;;22.67;64.52;98548.00;5054988;28;20732;-71
2022/05/20 06:53:53;;;;;;;7.17;3.40;;;;;;;22.88;63.39;98549.44;5053435;28;20198;-71
2022/05/20 06:56:21;;;;;;;5.20;3.80;;;;;;;22.99;63.51;98550.94;5063374;28;20230;-71
2022/05/20 06:58:47;;;;;;;8.90;6.00;;;;;;;22.97;63.53;98547.72;5075815;28;20277;-71
2022/05/20 07:01:15;;;;;;;4.07;3.35;;;;;;;23.12;63.01;98552.97;5061262;28;20288;-71
2022/05/20 07:03:42;;;;;;;4.78;4.30;;;;;;;23.19;61.56;98548.03;5053832;28;20205;-71
2022/05/20 07:06:10;;;;;;;6.68;3.80;;;;;;;23.32;61.58;98547.34;5054405;28;20207;-71
2022/05/20 07:08:37;;;;;;;6.22;3.63;;;;;;;23.47;59.15;98547.19;5055749;28;20259;-71
2022/05/20 07:11:04;;;;;;;4.65;2.95;;;;;;;23.67;59.78;98550.47;5051971;28;20209;-71
2022/05/20 07:13:32;;;;;;;6.30;3.35;;;;;;;23.77;58.19;98549.50;5063270;28;20218;-71
2022/05/20 07:15:59;;;;;;;4.65;3.00;;;;;;;23.93;58.45;98548.25;5059658;28;20212;-71
2022/05/20 07:18:27;;;;;;;2.88;2.67;;;;;;;24.03;58.10;98551.63;5071432;28;20223;-72
2022/05/20 07:20:53;;;;;;;3.35;3.05;;;;;;;24.20;57.86;98542.97;5059609;28;20205;-71
2022/05/20 07:23:22;;;;;;;5.43;3.10;;;;;;;24.24;56.03;98547.50;5054407;28;20217;-71
2022/05/20 07:25:50;;;;;;;7.75;4.45;;;;;;;24.26;57.07;98541.75;5053971;28;20292;-71
2022/05/20 07:28:16;;;;;;;4.93;4.40;;;;;;;24.27;56.32;98535.22;5055169;28;20229;-72
2022/05/20 07:30:42;;;;;;;3.95;3.63;;;;;;;24.48;56.56;98539.25;5058610;28;20216;-71
2022/05/20 07:33:09;;;;;;;5.70;3.30;;;;;;;24.54;55.45;98543.50;5054016;28;20564;-71
2022/05/20 07:35:36;;;;;;;3.40;3.10;;;;;;;24.64;55.35;98532.47;5054137;28;20231;-72
2022/05/20 07:38:03;;;;;;;6.50;3.72;;;;;;;24.73;55.07;98534.22;5053113;28;20248;-71
2022/05/20 07:40:29;;;;;;;5.38;4.68;;;;;;;24.91;53.82;98518.94;5053971;28;20201;-71
2022/05/20 07:42:56;;;;;;;8.05;5.40;;;;;;;24.88;55.03;98516.84;5054285;28;20221;-72
2022/05/20 07:45:22;;;;;;;6.18;3.75;;;;;;;24.92;55.97;98526.81;5054522;28;20201;-72
2022/05/20 07:47:49;;;;;;;9.27;8.32;;;;;;;24.84;54.45;98522.06;5055033;28;20236;-73
2022/05/20 07:50:16;;;;;;;9.98;5.22;;;;;;;24.95;54.24;98525.38;5053747;28;20209;-73
2022/05/20 07:55:35;;;;;;;6.80;5.18;;;;;;;25.10;53.63;98525.91;5056755;28;20659;-73
2022/05/20 07:58:03;;;;;;;3.63;3.00;;;;;;;25.31;53.83;98524.47;5054616;28;20354;-72
2022/05/20 08:00:30;;;;;;;7.13;6.18;;;;;;;25.26;52.29;98534.59;5053588;28;20259;-73
2022/05/20 08:03:00;;;;;;;4.50;3.42;;;;;;;25.38;51.51;98527.56;5054922;28;20212;-72
2022/05/20 08:05:26;;;;;;;5.00;3.65;;;;;;;25.48;51.46;98530.13;5053629;28;20193;-72
2022/05/20 08:07:59;;;;;;;4.93;4.43;;;;;;;25.52;50.97;98525.69;5055249;28;20368;-73
2022/05/20 08:10:27;;;;;;;3.88;3.42;;;;;;;25.68;51.77;98528.84;5053215;28;20213;-72
2022/05/20 08:12:54;;;;;;;5.18;4.30;;;;;;;25.66;49.55;98522.94;5053123;28;20683;-73
2022/05/20 08:15:20;;;;;;;10.95;7.30;;;;;;;25.62;48.56;98522.72;5053384;28;20201;-73
2022/05/20 08:17:46;;;;;;;7.78;3.80;;;;;;;25.74;49.08;98519.50;5053509;28;20591;-73
2022/05/20 08:20:21;;;;;;;5.40;3.30;;;;;;;25.76;49.90;98501.72;5053422;28;20568;-72
2022/05/20 08:22:48;;;;;;;4.95;3.40;;;;;;;25.95;48.59;98505.13;5052397;28;20292;-72
2022/05/20 08:25:14;;;;;;;6.30;4.03;;;;;;;25.85;48.42;98504.53;5055009;28;20235;-73
2022/05/20 08:27:41;;;;;;;4.10;3.70;;;;;;;26.00;47.40;98505.00;5053232;28;20225;-73
2022/05/20 08:30:11;;;;;;;6.28;3.55;;;;;;;26.11;49.21;98500.13;5052490;28;20208;-73
2022/05/20 08:32:38;;;;;;;6.10;4.53;;;;;;;26.23;49.34;98495.75;5052330;28;20201;-73
2022/05/20 08:35:04;;;;;;;7.70;5.40;;;;;;;26.17;48.57;98493.44;5053160;28;20227;-72
2022/05/20 08:37:33;;;;;;;4.90;3.60;;;;;;;26.28;47.91;98495.63;5052692;28;20727;-73
2022/05/20 08:40:01;;;;;;;5.53;3.60;;;;;;;26.36;49.66;98474.97;5053232;28;20201;-73
2022/05/20 08:42:32;;;;;;;6.45;4.55;;;;;;;26.33;48.49;98484.59;5051625;28;20201;-73
2022/05/20 08:44:59;;;;;;;3.65;3.35;;;;;;;26.60;47.02;98478.25;5053935;28;20193;-72
2022/05/20 08:47:34;;;;;;;6.30;5.18;;;;;;;26.64;47.59;98473.78;5035784;28;20225;-72
2022/05/20 08:50:05;;;;;;;7.00;4.90;;;;;;;26.56;47.03;98477.22;5051763;28;20197;-73
2022/05/20 08:52:32;;;;;;;5.70;4.25;;;;;;;26.52;48.68;98476.22;5051943;28;20209;-73
2022/05/20 08:54:59;;;;;;;7.82;4.13;;;;;;;26.65;46.39;98472.66;5053935;28;20204;-73
2022/05/20 08:57:29;;;;;;;6.80;3.45;;;;;;;27.09;45.24;98465.16;5060631;28;20221;-72
2022/05/20 08:59:56;;;;;;;6.70;3.60;;;;;;;27.15;45.61;98466.59;5053501;28;20243;-72
2022/05/20 09:02:23;;;;;;;5.43;4.05;;;;;;;26.89;44.85;98468.44;5051897;28;20209;-73
2022/05/20 09:04:51;;;;;;;6.95;6.25;;;;;;;26.95;45.92;98469.09;5053283;28;20597;-72
2022/05/20 09:07:20;;;;;;;10.27;8.52;;;;;;;26.95;46.61;98455.44;5051450;28;20231;-73
2022/05/20 09:09:53;;;;;;;6.43;4.25;;;;;;;26.98;46.69;98452.09;5048874;28;20225;-72
2022/05/20 09:12:41;;;;;;;5.85;5.20;;;;;;;27.46;45.92;98463.03;5052648;28;20207;-72
2022/05/20 09:18:07;;;;;;;3.50;3.20;;;;;;;27.70;44.23;98450.53;5060583;28;20219;-72
2022/05/20 09:20:34;;;;;;;6.28;3.92;;;;;;;27.85;41.88;98454.78;5051434;28;20251;-72
2022/05/20 09:23:05;;;;;;;11.55;8.27;;;;;;;27.75;42.13;98461.31;5052586;28;20208;-72
2022/05/20 09:25:36;;;;;;;14.02;12.57;;;;;;;27.59;41.66;98456.63;5054802;28;20223;-72
2022/05/20 09:28:14;;;;;;;6.03;4.00;;;;;;;27.60;41.69;98447.31;5061614;28;20354;-74
2022/05/20 09:30:42;;;;;;;4.88;4.45;;;;;;;27.58;41.23;98436.69;5052356;28;20201;-73
2022/05/20 09:33:16;;;;;;;5.53;4.90;;;;;;;27.83;42.04;98432.41;5033327;28;20201;-72
2022/05/20 09:35:48;;;;;;;8.60;6.75;;;;;;;27.77;41.32;98428.22;5053349;28;20185;-73
2022/05/20 09:38:32;;;;;;;6.07;3.55;;;;;;;28.12;40.28;98416.97;5049683;28;20217;-73
2022/05/20 09:40:58;;;;;;;9.73;3.75;;;;;;;28.11;41.03;98420.03;5052597;28;20212;-72
2022/05/20 09:43:30;;;;;;;4.93;3.47;;;;;;;28.18;39.82;98423.91;5050804;28;20215;-73
2022/05/20 09:45:59;;;;;;;7.63;5.47;;;;;;;28.14;40.35;98419.38;5053050;28;20193;-73
2022/05/20 09:49:02;;;;;;;5.00;4.55;;;;;;;27.99;39.67;98411.69;5052264;28;20233;-73
2022/05/20 09:51:42;;;;;;;8.20;4.93;;;;;;;28.05;40.98;98410.38;5021057;28;20213;-74
2022/05/20 09:54:35;;;;;;;8.70;4.93;;;;;;;28.24;40.85;98410.84;5043868;28;20199;-74
2022/05/20 09:57:04;;;;;;;4.32;3.42;;;;;;;28.27;39.68;98416.47;5024115;28;20205;-74
2022/05/20 09:59:38;;;;;;;7.15;5.95;;;;;;;28.39;40.63;98404.88;5050749;28;20209;-73
2022/05/20 10:02:14;;;;;;;6.50;4.00;;;;;;;28.33;40.79;98415.19;5051865;28;20205;-74
2022/05/20 10:04:57;;;;;;;4.45;3.25;;;;;;;28.54;39.95;98410.66;5052198;28;20204;-75
2022/05/20 10:07:36;;;;;;;3.70;3.40;;;;;;;28.60;40.35;98397.59;5053114;28;20232;-73
2022/05/20 10:10:29;;;;;;;5.70;3.60;;;;;;;28.78;39.56;98396.38;5051568;28;20240;-74
2022/05/20 10:12:58;;;;;;;9.35;6.53;;;;;;;28.70;41.59;98376.13;5044964;28;20240;-74
2022/05/20 10:15:47;;;;;;;6.88;5.50;;;;;;;28.62;39.89;98371.50;5052764;28;20205;-72
2022/05/20 10:18:27;;;;;;;5.80;3.53;;;;;;;28.51;39.55;98370.25;5050359;28;20221;-71
2022/05/20 10:21:07;;;;;;;6.88;3.95;;;;;;;28.62;40.98;98363.28;5051691;28;20197;-70
2022/05/20 10:23:44;;;;;;;5.95;3.97;;;;;;;28.69;40.15;98363.59;5035813;28;20200;-70
2022/05/20 10:26:36;;;;;;;4.75;3.45;;;;;;;29.06;39.62;98365.53;5015749;28;20205;-70
2022/05/20 10:35:17;;;;;;;6.35;3.92;;;;;;;28.30;40.66;98358.38;4972730;28;20191;-74
2022/05/20 10:38:21;;;;;;;7.40;3.70;;;;;;;28.33;40.92;98355.00;4991105;28;20262;-74
2022/05/20 10:41:02;;;;;;;5.57;4.78;;;;;;;28.21;39.53;98351.34;5049804;28;20219;-75
2022/05/20 10:49:55;;;;;;;5.65;3.80;;;;;;;29.45;34.05;98348.69;5043203;28;20254;-75
2022/05/20 10:52:25;;;;;;;4.95;3.20;;;;;;;29.31;35.77;98334.44;5056446;28;20196;-75
2022/05/20 10:55:26;;;;;;;5.05;3.20;;;;;;;29.48;35.66;98328.03;5037935;28;20208;-75
2022/05/20 10:58:13;;;;;;;5.45;3.17;;;;;;;29.68;35.60;98322.56;5055963;28;20232;-76
2022/05/20 11:00:52;;;;;;;5.57;3.20;;;;;;;30.12;35.89;98319.06;5057762;28;20201;-73
2022/05/20 11:03:39;;;;;;;6.10;3.20;;;;;;;29.90;34.33;98322.19;5047692;28;20204;-74
2022/05/20 11:06:37;;;;;;;4.43;3.30;;;;;;;29.94;33.16;98311.34;5054361;28;20566;-74
2022/05/20 11:09:14;;;;;;;8.40;3.58;;;;;;;29.65;34.23;98312.25;5008997;28;20225;-71
2022/05/20 11:11:56;;;;;;;4.78;3.53;;;;;;;29.47;33.96;98308.03;5039471;28;20213;-74
2022/05/20 11:14:59;;;;;;;5.97;3.20;;;;;;;29.63;33.91;98295.38;5055486;28;20244;-73
2022/05/20 11:17:34;;;;;;;5.28;3.67;;;;;;;29.93;34.00;98285.84;5012744;28;20248;-74
2022/05/20 11:20:44;;;;;;;5.90;3.40;;;;;;;29.81;33.60;98272.13;5050502;28;20288;-75
2022/05/20 11:23:34;;;;;;;5.95;3.75;;;;;;;29.99;33.89;98261.78;5035980;28;20201;-74
2022/05/20 11:26:36;;;;;;;6.15;3.80;;;;;;;30.26;33.20;98256.50;5054856;28;20211;-74
2022/05/20 11:29:28;;;;;;;4.80;3.22;;;;;;;30.06;32.82;98251.03;5054414;28;20232;-75
2022/05/20 11:32:01;;;;;;;9.02;3.53;;;;;;;30.17;33.27;98247.56;5032496;28;20201;-72
2022/05/20 11:35:04;;;;;;;3.53;3.08;;;;;;;29.84;34.28;98241.28;5054198;28;20197;-72
2022/05/20 11:37:49;;;;;;;8.88;3.45;;;;;;;29.74;33.98;98228.03;5007389;28;20248;-71
2022/05/20 11:40:39;;;;;;;6.88;3.60;;;;;;;29.61;32.82;98220.91;5049447;28;20205;-72
2022/05/20 11:43:18;;;;;;;4.57;2.92;;;;;;;29.86;33.17;98197.91;5044753;28;20258;-72
2022/05/20 11:46:03;;;;;;;5.32;3.20;;;;;;;29.81;34.10;98195.38;5053133;28;20292;-72
2022/05/20 11:49:10;;;;;;;7.85;3.25;;;;;;;30.22;37.22;98197.97;5050463;28;20225;-72
2022/05/20 11:51:52;;;;;;;10.40;4.32;;;;;;;30.47;40.00;98188.56;5050213;28;20209;-71
2022/05/20 11:54:27;;;;;;;5.32;3.95;;;;;;;29.86;39.38;98172.41;5064514;28;20204;-72
2022/05/20 11:57:04;;;;;;;12.18;4.60;;;;;;;30.17;39.49;98178.19;5031015;28;20200;-72
2022/05/20 11:59:41;;;;;;;9.85;4.07;;;;;;;29.96;41.88;98186.50;5032730;28;20204;-72
2022/05/20 12:02:10;;;;;;;7.68;4.00;;;;;;;29.50;39.72;98172.31;5040739;28;20246;-71
2022/05/20 12:04:39;;;;;;;8.48;3.42;;;;;;;29.66;35.90;98171.34;5052289;28;20252;-71
2022/05/20 12:07:10;;;;;;;5.80;3.58;;;;;;;29.96;37.97;98164.56;5055364;28;20212;-72
2022/05/20 12:09:44;;;;;;;7.88;3.42;;;;;;;29.84;34.46;98150.81;5053345;28;20225;-71
2022/05/20 12:12:16;;;;;;;5.90;3.63;;;;;;;29.87;34.80;98141.94;5055490;28;20205;-72
2022/05/20 12:14:55;;;;;;;5.70;3.30;;;;;;;30.07;32.98;98148.47;5056601;28;20205;-71
2022/05/20 12:17:47;;;;;;;5.40;3.88;;;;;;;29.84;34.37;98131.63;5053697;28;20225;-71
2022/05/20 12:26:04;;;;;;;8.02;3.47;;;;;;;30.32;34.39;98123.44;5006078;28;20206;-71
2022/05/20 12:28:35;;;;;;;4.60;2.95;;;;;;;30.45;34.41;98113.22;5052534;28;21124;-71
2022/05/20 12:31:32;;;;;;;8.38;3.20;;;;;;;30.60;33.77;98113.31;5055884;28;20231;-71
2022/05/20 12:34:10;;;;;;;6.10;3.22;;;;;;;30.64;33.62;98113.41;5055010;28;20194;-72
2022/05/20 12:36:44;;;;;;;5.97;3.22;;;;;;;30.63;32.87;98104.41;5057764;28;20201;-72